AV - LB | Pilotos de la V.A




 METAR AND TAF INFORMATION
METAR FOR SCCY
ADDS - METARS form results

(0251 UTC 19 May 2021)
Data provider http://aviationweather.gov/metar/data/
 
METAR text: SCCY 190200Z 00000KT 2500 BR OVC020 03/02 Q1008
Conditions at: SCCY (COYHAIQUE/TENIEN, CL) observed 0200 UTC 19 May 2021
Temperature: 3.0°C (37°F)
Dewpoint: 2.0°C (36°F) [RH = 93%]
Pressure (altimeter): 29.76 inches Hg (1008.0 mb)
Winds: calm
Visibility: 1.55 miles (2.49 km)
Ceiling: 2000 feet AGL
Clouds: overcast cloud deck at 2000 feet AGL
Weather: BR  (mist)

 AIRPORT MAP

 RUNWAY INFORMATION
Runway 03 Runway length 5072 ft Runway width 98 ft
Runway elevation 1020 ft Runway displaced threshold 0 ft Runway heading 46
Runway 21 Runway length 5072 ft Runway width 98 ft
Runway elevation 1020 ft Runway displaced threshold 0 ft Runway heading 226

 AIRPORT FREQUENCIES
Type AFIS Name AFIS Frequency 126.7 MHZ
Type GND Name COYHAIQUE Frequency 545.4 MHZ
Type RDO Name COYHAIQUE Frequency 545.4 MHZ

 AIRPORT NEAR NAVIGATION AIDS